createdAt,value
2017-04-02T00:00:35.575Z,1006.93
2017-04-02T00:01:36.874Z,1006.93
2017-04-02T00:02:38.112Z,1006.98
2017-04-02T00:03:39.354Z,1006.94
2017-04-02T00:04:40.601Z,1006.93
2017-04-02T00:05:41.848Z,1006.92
2017-04-02T00:06:43.188Z,1006.92
2017-04-02T00:07:44.433Z,1006.9
2017-04-02T00:08:45.670Z,1006.9
2017-04-02T00:09:46.917Z,1006.95
2017-04-02T00:10:48.171Z,1006.94
2017-04-02T00:11:49.467Z,1006.96
2017-04-02T00:12:50.716Z,1006.96
2017-04-02T00:13:51.947Z,1006.94
2017-04-02T00:14:53.272Z,1006.98
2017-04-02T00:15:54.561Z,1006.96
2017-04-02T00:16:55.804Z,1006.98
2017-04-02T00:17:57.057Z,1006.97
2017-04-02T00:18:58.280Z,1006.97
2017-04-02T00:19:59.533Z,1006.98
2017-04-02T00:21:00.773Z,1006.97
2017-04-02T00:22:02.008Z,1006.98
2017-04-02T00:23:03.264Z,1006.99
2017-04-02T00:24:04.511Z,1006.95
2017-04-02T00:25:05.742Z,1006.97
2017-04-02T00:26:07.085Z,1006.97
2017-04-02T00:27:08.344Z,1006.95
2017-04-02T00:28:09.581Z,1006.96
2017-04-02T00:29:10.822Z,1006.97
2017-04-02T00:30:12.068Z,1006.99
2017-04-02T00:31:13.467Z,1007.03
2017-04-02T00:32:14.731Z,1007.07
2017-04-02T00:33:16.020Z,1007.05
2017-04-02T00:34:17.255Z,1007.03
2017-04-02T00:35:18.563Z,1007.1
2017-04-02T00:36:19.795Z,1007.06
2017-04-02T00:37:21.034Z,1007.06
2017-04-02T00:38:22.274Z,1007.08
2017-04-02T00:39:23.620Z,1007.04
2017-04-02T00:40:24.902Z,1007.08
2017-04-02T00:41:26.130Z,1007.06
2017-04-02T00:42:27.378Z,1007.07
2017-04-02T00:43:28.627Z,1007.09
2017-04-02T00:44:29.874Z,1007.14
2017-04-02T00:45:31.134Z,1007.15
2017-04-02T00:46:32.485Z,1007.17
2017-04-02T00:47:33.750Z,1007.18
2017-04-02T00:48:34.982Z,1007.17
2017-04-02T00:49:36.245Z,1007.2
2017-04-02T00:50:37.567Z,1007.18
2017-04-02T00:51:38.845Z,1007.17
2017-04-02T00:52:40.110Z,1007.24
2017-04-02T00:53:41.335Z,1007.24
2017-04-02T00:54:42.593Z,1007.26
2017-04-02T00:55:43.844Z,1007.35
2017-04-02T00:56:45.057Z,1007.32
2017-04-02T00:57:46.285Z,1007.32
2017-04-02T00:58:47.546Z,1007.33
2017-04-02T00:59:48.782Z,1007.33
2017-04-02T01:00:50.097Z,1007.33
2017-04-02T01:01:51.459Z,1007.37
2017-04-02T01:02:52.808Z,1007.36
2017-04-02T01:03:54.069Z,1007.38
2017-04-02T01:04:55.313Z,1007.35
2017-04-02T01:05:56.725Z,1007.35
2017-04-02T01:06:57.965Z,1007.37
2017-04-02T01:07:59.227Z,1007.33
2017-04-02T01:09:00.564Z,1007.37
2017-04-02T01:10:01.691Z,1007.34
2017-04-02T01:11:03.050Z,1007.36
2017-04-02T01:12:04.422Z,1007.38
2017-04-02T01:13:05.662Z,1007.36
2017-04-02T01:14:06.926Z,1007.34
2017-04-02T01:15:08.162Z,1007.42
2017-04-02T01:16:09.407Z,1007.39
2017-04-02T01:17:10.754Z,1007.37
2017-04-02T01:18:12.019Z,1007.38
2017-04-02T01:19:13.266Z,1007.42
2017-04-02T01:20:14.536Z,1007.43
2017-04-02T01:21:15.779Z,1007.38
2017-04-02T01:22:17.054Z,1007.38
2017-04-02T01:23:18.341Z,1007.36
2017-04-02T01:24:19.590Z,1007.4
2017-04-02T01:25:20.818Z,1007.37
2017-04-02T01:26:22.054Z,1007.38
2017-04-02T01:27:23.563Z,1007.34
2017-04-02T01:28:24.816Z,1007.32
2017-04-02T01:29:26.065Z,1007.34
2017-04-02T01:30:27.332Z,1007.35
2017-04-02T01:31:28.558Z,1007.35
2017-04-02T01:32:29.879Z,1007.35
2017-04-02T01:33:31.133Z,1007.4
2017-04-02T01:34:32.356Z,1007.4
2017-04-02T01:35:33.599Z,1007.4
2017-04-02T01:36:34.851Z,1007.44
2017-04-02T01:37:36.077Z,1007.45
2017-04-02T01:38:37.390Z,1007.5
2017-04-02T01:39:38.641Z,1007.5
2017-04-02T01:40:39.920Z,1007.49
2017-04-02T01:41:41.147Z,1007.5
2017-04-02T01:42:42.406Z,1007.53
2017-04-02T01:43:43.661Z,1007.52
2017-04-02T01:44:44.891Z,1007.52
2017-04-02T01:45:46.156Z,1007.52
2017-04-02T01:46:47.480Z,1007.51
2017-04-02T01:47:48.719Z,1007.49
2017-04-02T01:48:49.960Z,1007.55
2017-04-02T01:49:51.209Z,1007.51
2017-04-02T01:50:52.468Z,1007.49
2017-04-02T01:51:53.731Z,1007.49
2017-04-02T01:52:54.988Z,1007.53
2017-04-02T01:53:56.213Z,1007.53
2017-04-02T01:54:57.460Z,1007.57
2017-04-02T01:55:58.737Z,1007.58
2017-04-02T01:56:59.953Z,1007.63
2017-04-02T01:58:01.199Z,1007.62
2017-04-02T01:59:02.597Z,1007.65
2017-04-02T02:00:03.799Z,1007.68
2017-04-02T02:01:05.053Z,1007.66
2017-04-02T02:02:06.276Z,1007.69
2017-04-02T02:03:07.529Z,1007.67
2017-04-02T02:04:08.789Z,1007.66
2017-04-02T02:05:10.035Z,1007.67
2017-04-02T02:06:11.338Z,1007.68
2017-04-02T02:07:12.627Z,1007.7
2017-04-02T02:08:13.886Z,1007.68
2017-04-02T02:09:15.141Z,1007.66
2017-04-02T02:10:16.366Z,1007.68
2017-04-02T02:11:17.700Z,1007.69
2017-04-02T02:12:19.046Z,1007.66
2017-04-02T02:13:20.277Z,1007.65
2017-04-02T02:14:21.524Z,1007.67
2017-04-02T02:15:22.761Z,1007.65
2017-04-02T02:16:24.049Z,1007.68
2017-04-02T02:17:25.261Z,1007.66
2017-04-02T02:18:26.778Z,1007.67
2017-04-02T02:19:28.020Z,1007.72
2017-04-02T02:20:29.248Z,1007.74
2017-04-02T02:21:30.487Z,1007.76
2017-04-02T02:22:31.798Z,1007.72
2017-04-02T02:23:33.148Z,1007.76
2017-04-02T02:24:34.449Z,1007.74
2017-04-02T02:25:35.683Z,1007.72
2017-04-02T02:26:36.967Z,1007.73
2017-04-02T02:27:38.219Z,1007.73
2017-04-02T02:28:39.474Z,1007.73
2017-04-02T02:29:40.740Z,1007.77
2017-04-02T02:30:42.135Z,1007.79
2017-04-02T02:31:43.371Z,1007.78
2017-04-02T02:32:44.606Z,1007.81
2017-04-02T02:33:45.874Z,1007.82
2017-04-02T02:34:47.106Z,1007.86
2017-04-02T02:35:48.355Z,1007.92
2017-04-02T02:36:49.590Z,1007.88
2017-04-02T02:37:50.920Z,1007.88
2017-04-02T02:38:52.159Z,1007.91
2017-04-02T02:39:53.516Z,1007.88
2017-04-02T02:40:54.753Z,1007.94
2017-04-02T02:41:55.998Z,1007.93
2017-04-02T02:42:57.332Z,1007.94
2017-04-02T02:43:58.579Z,1007.94
2017-04-02T02:44:59.869Z,1007.95
2017-04-02T02:46:01.113Z,1008
2017-04-02T02:47:02.365Z,1007.99
2017-04-02T02:48:03.594Z,1007.98
2017-04-02T02:49:04.885Z,1007.98
2017-04-02T02:50:06.157Z,1008.03
2017-04-02T02:51:07.400Z,1008.04
2017-04-02T02:52:08.674Z,1008.01
2017-04-02T02:53:09.897Z,1008.03
2017-04-02T02:54:11.167Z,1008.04
2017-04-02T02:55:12.437Z,1008.04
2017-04-02T02:56:13.682Z,1008.08
2017-04-02T02:57:14.913Z,1008.08
2017-04-02T02:58:16.152Z,1008.07
2017-04-02T02:59:17.407Z,1008.05
2017-04-02T03:00:18.670Z,1008.07
2017-04-02T03:01:19.895Z,1008.06
2017-04-02T03:02:21.218Z,1008.07
2017-04-02T03:03:22.471Z,1008.06
2017-04-02T03:04:23.722Z,1008.07
2017-04-02T03:05:24.967Z,1008.07
2017-04-02T03:06:26.211Z,1008.08
2017-04-02T03:07:27.473Z,1008.12
2017-04-02T03:08:28.787Z,1008.11
2017-04-02T03:09:30.066Z,1008.14
2017-04-02T03:10:31.293Z,1008.12
2017-04-02T03:11:32.533Z,1008.16
2017-04-02T03:12:33.993Z,1008.16
2017-04-02T03:13:35.368Z,1008.17
2017-04-02T03:14:36.752Z,1008.15
2017-04-02T03:15:37.987Z,1008.16
2017-04-02T03:16:39.218Z,1008.18
2017-04-02T03:17:40.455Z,1008.17
2017-04-02T03:18:41.694Z,1008.18
2017-04-02T03:19:42.985Z,1008.2
2017-04-02T03:20:44.207Z,1008.21
2017-04-02T03:21:45.468Z,1008.24
2017-04-02T03:22:46.879Z,1008.25
2017-04-02T03:23:48.134Z,1008.28
2017-04-02T03:24:49.439Z,1008.28
2017-04-02T03:25:50.760Z,1008.29
2017-04-02T03:26:51.991Z,1008.32
2017-04-02T03:27:53.276Z,1008.34
2017-04-02T03:28:54.512Z,1008.28
2017-04-02T03:29:55.848Z,1008.25
2017-04-02T03:30:57.089Z,1008.25
2017-04-02T03:31:58.336Z,1008.25
2017-04-02T03:32:59.573Z,1008.28
2017-04-02T03:34:00.812Z,1008.29
2017-04-02T03:35:02.051Z,1008.3
2017-04-02T03:36:03.428Z,1008.28
2017-04-02T03:37:04.921Z,1008.27
2017-04-02T03:38:06.179Z,1008.26
2017-04-02T03:39:07.464Z,1008.3
2017-04-02T03:40:08.670Z,1008.27
2017-04-02T03:41:09.952Z,1008.3
2017-04-02T03:42:11.248Z,1008.26
2017-04-02T03:43:12.523Z,1008.29
2017-04-02T03:44:13.766Z,1008.29
2017-04-02T03:45:15.011Z,1008.3
2017-04-02T03:46:16.243Z,1008.32
2017-04-02T03:47:17.538Z,1008.34
2017-04-02T03:48:18.872Z,1008.35
2017-04-02T03:49:20.120Z,1008.36
2017-04-02T03:50:21.401Z,1008.36
2017-04-02T03:51:22.636Z,1008.36
2017-04-02T03:52:23.875Z,1008.31
2017-04-02T03:53:25.114Z,1008.34
2017-04-02T03:54:26.347Z,1008.38
2017-04-02T03:55:27.581Z,1008.41
2017-04-02T03:56:28.821Z,1008.38
2017-04-02T03:57:30.064Z,1008.37
2017-04-02T03:58:31.305Z,1008.39
2017-04-02T03:59:32.538Z,1008.38
2017-04-02T04:00:33.785Z,1008.38
2017-04-02T04:01:35.036Z,1008.38
2017-04-02T04:02:36.282Z,1008.38
2017-04-02T04:03:37.542Z,1008.38
2017-04-02T04:04:38.791Z,1008.38
2017-04-02T04:05:40.024Z,1008.46
2017-04-02T04:06:41.283Z,1008.41
2017-04-02T04:07:42.538Z,1008.39
2017-04-02T04:08:43.791Z,1008.4
2017-04-02T04:09:45.151Z,1008.43
2017-04-02T04:10:46.374Z,1008.4
2017-04-02T04:11:47.616Z,1008.44
2017-04-02T04:12:48.871Z,1008.45
2017-04-02T04:13:50.127Z,1008.44
2017-04-02T04:14:51.494Z,1008.5
2017-04-02T04:15:52.774Z,1008.43
2017-04-02T04:16:54.005Z,1008.46
2017-04-02T04:17:55.259Z,1008.47
2017-04-02T04:18:56.481Z,1008.49
2017-04-02T04:19:57.845Z,1008.51
2017-04-02T04:20:59.110Z,1008.53
2017-04-02T04:22:00.490Z,1008.58
2017-04-02T04:23:01.767Z,1008.59
2017-04-02T04:24:02.970Z,1008.59
2017-04-02T04:25:04.252Z,1008.56
2017-04-02T04:26:05.511Z,1008.61
2017-04-02T04:27:06.902Z,1008.63
2017-04-02T04:28:08.169Z,1008.64
2017-04-02T04:29:09.421Z,1008.67
2017-04-02T04:30:10.639Z,1008.73
2017-04-02T04:31:12.004Z,1008.74
2017-04-02T04:32:13.423Z,1008.78
2017-04-02T04:33:14.665Z,1008.75
2017-04-02T04:34:15.907Z,1008.76
2017-04-02T04:35:17.148Z,1008.82
2017-04-02T04:36:18.440Z,1008.83
2017-04-02T04:37:19.654Z,1008.8
2017-04-02T04:38:21.057Z,1008.8
2017-04-02T04:39:22.396Z,1008.81
2017-04-02T04:40:23.647Z,1008.84
2017-04-02T04:41:24.899Z,1008.82
2017-04-02T04:42:26.119Z,1008.83
2017-04-02T04:43:27.378Z,1008.83
2017-04-02T04:44:28.637Z,1008.84
2017-04-02T04:45:29.878Z,1008.81
2017-04-02T04:46:31.095Z,1008.82
2017-04-02T04:47:32.365Z,1008.83
2017-04-02T04:48:33.603Z,1008.8
2017-04-02T04:49:34.860Z,1008.87
2017-04-02T04:50:36.127Z,1008.87
2017-04-02T04:51:37.346Z,1008.88
2017-04-02T04:52:38.579Z,1008.9
2017-04-02T04:53:39.840Z,1008.9
2017-04-02T04:54:41.079Z,1008.92
2017-04-02T04:55:42.323Z,1008.89
2017-04-02T04:56:43.590Z,1008.92
2017-04-02T04:57:44.928Z,1008.95
2017-04-02T04:58:46.222Z,1008.98
2017-04-02T04:59:47.434Z,1009.03
2017-04-02T05:00:48.693Z,1009.11
2017-04-02T05:01:49.927Z,1009.14
2017-04-02T05:02:51.340Z,1009.13
2017-04-02T05:03:52.602Z,1009.11
2017-04-02T05:04:53.876Z,1009.18
2017-04-02T05:05:55.119Z,1009.17
2017-04-02T05:06:56.379Z,1009.16
2017-04-02T05:07:57.601Z,1009.19
2017-04-02T05:08:58.852Z,1009.21
2017-04-02T05:10:00.084Z,1009.22
2017-04-02T05:11:01.372Z,1009.23
2017-04-02T05:12:02.595Z,1009.25
2017-04-02T05:13:03.863Z,1009.27
2017-04-02T05:14:05.104Z,1009.26
2017-04-02T05:15:06.352Z,1009.26
2017-04-02T05:16:07.669Z,1009.26
2017-04-02T05:17:08.938Z,1009.28
2017-04-02T05:18:10.247Z,1009.32
2017-04-02T05:19:11.434Z,1009.31
2017-04-02T05:20:12.677Z,1009.33
2017-04-02T05:21:13.946Z,1009.36
2017-04-02T05:22:15.206Z,1009.39
2017-04-02T05:23:16.444Z,1009.43
2017-04-02T05:24:17.693Z,1009.43
2017-04-02T05:25:18.950Z,1009.48
2017-04-02T05:26:20.212Z,1009.46
2017-04-02T05:27:21.489Z,1009.45
2017-04-02T05:28:22.769Z,1009.5
2017-04-02T05:29:24.232Z,1009.52
2017-04-02T05:30:25.416Z,1009.54
2017-04-02T05:31:26.714Z,1009.52
2017-04-02T05:32:27.974Z,1009.54
2017-04-02T05:33:29.261Z,1009.53
2017-04-02T05:34:30.548Z,1009.54
2017-04-02T05:35:31.776Z,1009.52
2017-04-02T05:36:33.021Z,1009.55
2017-04-02T05:37:34.273Z,1009.55
2017-04-02T05:38:35.544Z,1009.55
2017-04-02T05:39:36.791Z,1009.54
2017-04-02T05:40:38.024Z,1009.56
2017-04-02T05:41:39.268Z,1009.53
2017-04-02T05:42:40.616Z,1009.55
2017-04-02T05:43:41.884Z,1009.58
2017-04-02T05:44:43.094Z,1009.58
2017-04-02T05:45:44.355Z,1009.61
2017-04-02T05:46:45.583Z,1009.6
2017-04-02T05:47:46.857Z,1009.63
2017-04-02T05:48:48.100Z,1009.61
2017-04-02T05:49:49.325Z,1009.64
2017-04-02T05:50:50.560Z,1009.66
2017-04-02T05:51:51.813Z,1009.71
2017-04-02T05:52:53.048Z,1009.77
2017-04-02T05:53:54.287Z,1009.75
2017-04-02T05:54:55.530Z,1009.74
2017-04-02T05:55:56.806Z,1009.76
2017-04-02T05:56:58.048Z,1009.79
2017-04-02T05:57:59.273Z,1009.79
2017-04-02T05:59:00.535Z,1009.79
2017-04-02T06:00:01.818Z,1009.8
2017-04-02T06:01:03.074Z,1009.81
2017-04-02T06:02:04.450Z,1009.83
2017-04-02T06:03:05.660Z,1009.85
2017-04-02T06:04:06.895Z,1009.86
2017-04-02T06:05:08.146Z,1009.85
2017-04-02T06:06:09.375Z,1009.87
2017-04-02T06:07:10.666Z,1009.88
2017-04-02T06:08:11.865Z,1009.89
2017-04-02T06:09:13.102Z,1009.92
2017-04-02T06:10:14.340Z,1009.95
2017-04-02T06:11:15.594Z,1009.94
2017-04-02T06:12:16.844Z,1009.94
2017-04-02T06:13:18.060Z,1009.98
2017-04-02T06:14:19.336Z,1009.97
2017-04-02T06:15:20.639Z,1009.99
2017-04-02T06:16:21.878Z,1010.04
2017-04-02T06:17:23.116Z,1010.06
2017-04-02T06:18:24.374Z,1010.08
2017-04-02T06:19:25.661Z,1010.11
2017-04-02T06:20:26.922Z,1010.14
2017-04-02T06:21:28.167Z,1010.18
2017-04-02T06:22:29.451Z,1010.18
2017-04-02T06:23:30.737Z,1010.25
2017-04-02T06:24:31.978Z,1010.23
2017-04-02T06:25:33.237Z,1010.24
2017-04-02T06:26:34.524Z,1010.24
2017-04-02T06:27:35.757Z,1010.23
2017-04-02T06:28:37.017Z,1010.24
2017-04-02T06:29:38.223Z,1010.28
2017-04-02T06:30:39.472Z,1010.3
2017-04-02T06:31:40.731Z,1010.33
2017-04-02T06:32:41.967Z,1010.33
2017-04-02T06:33:43.315Z,1010.4
2017-04-02T06:34:44.620Z,1010.35
2017-04-02T06:35:45.894Z,1010.4
2017-04-02T06:36:47.096Z,1010.34
2017-04-02T06:37:48.357Z,1010.4
2017-04-02T06:38:49.636Z,1010.41
2017-04-02T06:39:50.892Z,1010.47
2017-04-02T06:40:52.106Z,1010.49
2017-04-02T06:41:53.343Z,1010.52
2017-04-02T06:42:54.575Z,1010.51
2017-04-02T06:43:55.828Z,1010.56
2017-04-02T06:44:57.264Z,1010.56
2017-04-02T06:45:58.500Z,1010.63
2017-04-02T06:46:59.740Z,1010.65
2017-04-02T06:48:00.986Z,1010.57
2017-04-02T06:49:02.218Z,1010.54
2017-04-02T06:50:03.468Z,1010.61
2017-04-02T06:51:04.822Z,1010.66
2017-04-02T06:52:06.083Z,1010.66
2017-04-02T06:53:07.405Z,1010.63
2017-04-02T06:54:08.840Z,1010.7
2017-04-02T06:55:10.083Z,1010.78
2017-04-02T06:56:11.429Z,1010.75
2017-04-02T06:57:12.691Z,1010.79
2017-04-02T06:58:13.937Z,1010.78
2017-04-02T06:59:15.187Z,1010.81
2017-04-02T07:00:16.432Z,1010.85
2017-04-02T07:01:17.785Z,1010.84
2017-04-02T07:02:19.076Z,1010.81
2017-04-02T07:03:20.329Z,1010.8
2017-04-02T07:04:21.557Z,1010.86
2017-04-02T07:05:22.834Z,1010.88
2017-04-02T07:06:24.061Z,1010.86
2017-04-02T07:07:25.297Z,1010.9
2017-04-02T07:08:26.539Z,1010.92
2017-04-02T07:09:27.879Z,1010.89
2017-04-02T07:10:29.245Z,1010.91
2017-04-02T07:11:30.488Z,1010.92
2017-04-02T07:12:31.746Z,1010.94
2017-04-02T07:13:32.985Z,1010.95
2017-04-02T07:14:34.241Z,1010.91
2017-04-02T07:15:35.505Z,1010.92
2017-04-02T07:16:36.838Z,1010.88
2017-04-02T07:17:38.081Z,1010.94
2017-04-02T07:18:39.323Z,1010.96
2017-04-02T07:19:40.571Z,1010.99
2017-04-02T07:20:41.838Z,1011.03
2017-04-02T07:21:43.128Z,1011.01
2017-04-02T07:22:44.370Z,1011.02
2017-04-02T07:23:45.644Z,1011.06
2017-04-02T07:24:46.905Z,1011.08
2017-04-02T07:25:48.127Z,1011.11
2017-04-02T07:26:49.374Z,1011.12
2017-04-02T07:27:50.645Z,1011.11
2017-04-02T07:28:51.900Z,1011.14
2017-04-02T07:29:53.121Z,1011.16
2017-04-02T07:30:54.355Z,1011.18
2017-04-02T07:31:55.603Z,1011.18
2017-04-02T07:32:56.857Z,1011.2
2017-04-02T07:33:58.104Z,1011.23
2017-04-02T07:34:59.315Z,1011.29
2017-04-02T07:36:00.686Z,1011.28
2017-04-02T07:37:01.936Z,1011.2
2017-04-02T07:38:03.221Z,1011.22
2017-04-02T07:39:04.455Z,1011.28
2017-04-02T07:40:05.713Z,1011.28
2017-04-02T07:41:07.055Z,1011.32
2017-04-02T07:42:08.284Z,1011.32
2017-04-02T07:43:09.533Z,1011.28
2017-04-02T07:44:10.795Z,1011.25
2017-04-02T07:45:12.032Z,1011.28
2017-04-02T07:46:13.384Z,1011.27
2017-04-02T07:47:14.624Z,1011.34
2017-04-02T07:48:15.866Z,1011.29
2017-04-02T07:49:17.225Z,1011.45
2017-04-02T07:50:18.453Z,1011.48
2017-04-02T07:51:19.707Z,1011.51
2017-04-02T07:52:20.952Z,1011.48
2017-04-02T07:53:22.398Z,1011.46
2017-04-02T07:54:23.548Z,1011.51
2017-04-02T07:55:24.839Z,1011.53
2017-04-02T07:56:26.145Z,1011.58
2017-04-02T07:57:27.355Z,1011.55
2017-04-02T07:58:28.718Z,1011.59
2017-04-02T07:59:29.969Z,1011.58
2017-04-02T08:00:31.260Z,1011.62
2017-04-02T08:01:32.469Z,1011.64
2017-04-02T08:02:33.742Z,1011.69
2017-04-02T08:03:35.022Z,1011.67
2017-04-02T08:04:36.297Z,1011.73
2017-04-02T08:05:37.620Z,1011.73
2017-04-02T08:06:38.948Z,1011.75
2017-04-02T08:07:40.189Z,1011.76
2017-04-02T08:08:41.433Z,1011.74
2017-04-02T08:09:42.687Z,1011.79
2017-04-02T08:10:43.949Z,1011.81
2017-04-02T08:11:45.195Z,1011.79
2017-04-02T08:12:46.459Z,1011.83
2017-04-02T08:13:47.704Z,1011.86
2017-04-02T08:14:48.961Z,1011.92
2017-04-02T08:15:50.220Z,1011.89
2017-04-02T08:16:51.567Z,1011.91
2017-04-02T08:17:52.874Z,1011.93
2017-04-02T08:18:54.152Z,1011.94
2017-04-02T08:19:55.394Z,1011.95
2017-04-02T08:20:56.643Z,1011.95
2017-04-02T08:21:57.985Z,1011.94
2017-04-02T08:22:59.275Z,1011.98
2017-04-02T08:24:00.541Z,1011.97
2017-04-02T08:25:01.771Z,1011.99
2017-04-02T08:26:03.022Z,1012.01
2017-04-02T08:27:04.283Z,1012.11
2017-04-02T08:28:05.614Z,1012.11
2017-04-02T08:29:06.929Z,1012.11
2017-04-02T08:30:08.128Z,1012.09
2017-04-02T08:31:09.375Z,1012.12
2017-04-02T08:32:10.646Z,1012.17
2017-04-02T08:33:11.892Z,1012.17
2017-04-02T08:34:13.352Z,1012.13
2017-04-02T08:35:14.617Z,1012.19
2017-04-02T08:36:15.871Z,1012.2
2017-04-02T08:37:17.149Z,1012.2
2017-04-02T08:38:18.410Z,1012.29
2017-04-02T08:39:19.819Z,1012.24
2017-04-02T08:40:21.156Z,1012.34
2017-04-02T08:41:22.419Z,1012.34
2017-04-02T08:42:23.674Z,1012.36
2017-04-02T08:43:24.934Z,1012.41
2017-04-02T08:44:26.166Z,1012.43
2017-04-02T08:45:27.429Z,1012.12
2017-04-02T08:46:28.801Z,1012.04
2017-04-02T08:47:29.963Z,1012.07
2017-04-02T08:48:31.329Z,1012.07
2017-04-02T08:49:32.571Z,1012.07
2017-04-02T08:50:33.871Z,1011.99
2017-04-02T08:51:35.158Z,1012
2017-04-02T08:52:36.478Z,1012.07
2017-04-02T08:53:37.727Z,1012.44
2017-04-02T08:54:38.962Z,1012.19
2017-04-02T08:55:40.212Z,1012.3
2017-04-02T08:56:41.488Z,1012.5
2017-04-02T08:57:42.760Z,1012.47
2017-04-02T08:58:44.010Z,1012.51
2017-04-02T08:59:45.292Z,1012.53
2017-04-02T09:00:46.612Z,1012.11
2017-04-02T09:01:47.922Z,1012.32
2017-04-02T09:02:49.167Z,1012.64
2017-04-02T09:03:50.426Z,1012.74
2017-04-02T09:04:51.689Z,1012.68
2017-04-02T09:05:53.014Z,1012.73
2017-04-02T09:06:54.247Z,1012.63
2017-04-02T09:07:55.502Z,1012.56
2017-04-02T09:08:56.757Z,1012.26
2017-04-02T09:09:58.042Z,1012.24
2017-04-02T09:10:59.371Z,1012.19
2017-04-02T09:12:00.823Z,1012.2
2017-04-02T09:13:02.073Z,1012.3
2017-04-02T09:14:03.314Z,1012.22
2017-04-02T09:15:04.588Z,1012.25
2017-04-02T09:16:05.835Z,1012.26
2017-04-02T09:17:07.175Z,1012.27
2017-04-02T09:18:08.439Z,1012.23
2017-04-02T09:19:09.680Z,1012.21
2017-04-02T09:20:10.979Z,1012.24
2017-04-02T09:21:12.240Z,1012.25
2017-04-02T09:22:13.572Z,1012.27
2017-04-02T09:23:14.770Z,1012.24
2017-04-02T09:24:16.009Z,1012.27
2017-04-02T09:25:17.260Z,1012.3
2017-04-02T09:26:18.516Z,1012.34
2017-04-02T09:27:19.816Z,1012.39
2017-04-02T09:28:21.035Z,1012.42
2017-04-02T09:29:22.284Z,1012.42
2017-04-02T09:30:23.539Z,1012.42
2017-04-02T09:31:24.993Z,1012.4
2017-04-02T09:32:26.241Z,1012.37
2017-04-02T09:33:27.560Z,1012.36
2017-04-02T09:34:28.817Z,1013.1
2017-04-02T09:35:30.268Z,1013.13
2017-04-02T09:36:31.546Z,1013.17
2017-04-02T09:37:32.825Z,1013.21
2017-04-02T09:38:34.042Z,1013.19
2017-04-02T09:39:35.488Z,1013.21
2017-04-02T09:40:36.816Z,1013.18
2017-04-02T09:41:38.052Z,1013.13
2017-04-02T09:42:39.303Z,1013.13
2017-04-02T09:43:40.550Z,1013.21
2017-04-02T09:44:41.799Z,1013.17
2017-04-02T09:45:43.060Z,1013.17
2017-04-02T09:46:44.387Z,1013.24
2017-04-02T09:47:45.616Z,1013.22
2017-04-02T09:48:46.869Z,1013.21
2017-04-02T09:49:48.147Z,1013.19
2017-04-02T09:50:49.375Z,1013.18
2017-04-02T09:51:50.660Z,1013.16
2017-04-02T09:52:51.973Z,1013.22
2017-04-02T09:53:53.274Z,1013.21
2017-04-02T09:54:54.541Z,1013.19
2017-04-02T09:55:56.040Z,1013.19
2017-04-02T09:56:57.499Z,1013.26
2017-04-02T09:57:58.813Z,1013.21
2017-04-02T09:59:00.066Z,1013.18
2017-04-02T10:00:01.350Z,1013.11
2017-04-02T10:01:02.605Z,1013.21
2017-04-02T10:02:03.860Z,1013.26
2017-04-02T10:03:05.151Z,1013.26
2017-04-02T10:04:06.410Z,1012.74
2017-04-02T10:05:07.669Z,1012.67
2017-04-02T10:06:08.949Z,1012.7
2017-04-02T10:07:10.183Z,1012.7
2017-04-02T10:08:11.579Z,1012.69
2017-04-02T10:09:12.832Z,1012.65
2017-04-02T10:10:14.101Z,1013.11
2017-04-02T10:11:15.378Z,1012.76
2017-04-02T10:12:16.607Z,1013.17
2017-04-02T10:13:17.974Z,1013.12
2017-04-02T10:14:19.287Z,1013.02
2017-04-02T10:15:20.543Z,1012.85
2017-04-02T10:16:21.798Z,1013.11
2017-04-02T10:17:23.036Z,1012.83
2017-04-02T10:18:24.290Z,1013.32
2017-04-02T10:19:25.568Z,1012.87
2017-04-02T10:20:26.832Z,1013.3
2017-04-02T10:21:28.136Z,1013.34
2017-04-02T10:22:29.351Z,1013.36
2017-04-02T10:23:30.684Z,1012.83
2017-04-02T10:24:31.901Z,1013.1
2017-04-02T10:25:33.166Z,1013.13
2017-04-02T10:26:34.560Z,1013.15
2017-04-02T10:27:35.808Z,1013.1
2017-04-02T10:28:37.073Z,1013.02
2017-04-02T10:29:38.358Z,1012.78
2017-04-02T10:30:39.622Z,1012.8
2017-04-02T10:31:40.873Z,1012.78
2017-04-02T10:32:42.137Z,1013
2017-04-02T10:33:43.408Z,1012.97
2017-04-02T10:34:44.782Z,1012.95
2017-04-02T10:35:46.024Z,1012.97
2017-04-02T10:36:47.287Z,1012.98
2017-04-02T10:37:48.531Z,1012.93
2017-04-02T10:38:49.791Z,1012.91
2017-04-02T10:39:51.069Z,1012.87
2017-04-02T10:40:52.335Z,1012.88
2017-04-02T10:41:53.566Z,1012.73
2017-04-02T10:42:54.817Z,1012.81
2017-04-02T10:43:56.136Z,1012.79
2017-04-02T10:44:57.549Z,1012.77
2017-04-02T10:45:58.792Z,1012.76
2017-04-02T10:47:00.053Z,1012.84
2017-04-02T10:48:01.302Z,1012.84
2017-04-02T10:49:02.551Z,1012.85
2017-04-02T10:50:03.801Z,1012.78
2017-04-02T10:51:05.063Z,1012.83
2017-04-02T10:52:06.319Z,1012.88
2017-04-02T10:53:07.575Z,1012.8
2017-04-02T10:54:08.840Z,1012.83
2017-04-02T10:55:10.107Z,1012.82
2017-04-02T10:56:11.363Z,1012.86
2017-04-02T10:57:12.615Z,1012.84
2017-04-02T10:58:13.871Z,1012.85
2017-04-02T10:59:15.148Z,1012.84
2017-04-02T11:00:16.423Z,1012.8
2017-04-02T11:01:17.686Z,1012.79
2017-04-02T11:02:18.942Z,1012.81
2017-04-02T11:03:20.232Z,1012.77
2017-04-02T11:04:21.517Z,1012.77
2017-04-02T11:05:22.789Z,1012.77
2017-04-02T11:06:24.017Z,1012.85
2017-04-02T11:07:25.278Z,1012.78
2017-04-02T11:08:26.519Z,1012.76
2017-04-02T11:09:27.800Z,1012.79
2017-04-02T11:10:29.141Z,1012.74
2017-04-02T11:11:30.474Z,1012.74
2017-04-02T11:12:31.721Z,1012.76
2017-04-02T11:13:32.975Z,1012.73
2017-04-02T11:14:34.249Z,1012.73
2017-04-02T11:15:35.502Z,1012.71
2017-04-02T11:16:36.743Z,1012.72
2017-04-02T11:17:37.997Z,1012.72
2017-04-02T11:18:39.247Z,1012.74
2017-04-02T11:19:40.517Z,1012.73
2017-04-02T11:20:41.769Z,1012.75
2017-04-02T11:21:43.012Z,1012.71
2017-04-02T11:22:44.260Z,1012.68
2017-04-02T11:23:45.564Z,1012.69
2017-04-02T11:24:46.815Z,1012.67
2017-04-02T11:25:48.070Z,1012.67
2017-04-02T11:26:49.336Z,1012.68
2017-04-02T11:27:50.566Z,1012.69
2017-04-02T11:28:51.915Z,1012.67
2017-04-02T11:29:53.197Z,1012.72
2017-04-02T11:30:54.415Z,1012.73
2017-04-02T11:31:55.673Z,1012.75
2017-04-02T11:32:56.915Z,1012.72
2017-04-02T11:33:58.283Z,1012.75
2017-04-02T11:34:59.654Z,1012.78
2017-04-02T11:36:00.920Z,1012.77
2017-04-02T11:37:02.163Z,1012.77
2017-04-02T11:38:03.407Z,1012.77
2017-04-02T11:39:04.654Z,1012.74
2017-04-02T11:40:05.924Z,1012.74
2017-04-02T11:41:07.198Z,1012.73
2017-04-02T11:42:08.443Z,1012.8
2017-04-02T11:43:09.713Z,1012.71
2017-04-02T11:44:10.961Z,1012.69
2017-04-02T11:45:12.207Z,1012.72
2017-04-02T11:46:13.516Z,1012.77
2017-04-02T11:47:14.738Z,1012.73
2017-04-02T11:48:15.979Z,1012.73
2017-04-02T11:49:17.228Z,1012.77
2017-04-02T11:50:18.477Z,1012.8
2017-04-02T11:51:19.719Z,1012.79
2017-04-02T11:52:20.961Z,1012.8
2017-04-02T11:53:22.244Z,1012.79
2017-04-02T11:54:23.493Z,1012.79
2017-04-02T11:55:24.752Z,1012.77
2017-04-02T11:56:25.988Z,1012.75
2017-04-02T11:57:27.234Z,1012.73
2017-04-02T11:58:28.477Z,1012.77
2017-04-02T11:59:29.747Z,1012.74
2017-04-02T12:00:31.055Z,1012.7
2017-04-02T12:01:32.314Z,1012.75
2017-04-02T12:02:33.567Z,1012.74
2017-04-02T12:03:34.814Z,1012.71
2017-04-02T12:04:36.063Z,1012.77
2017-04-02T12:05:37.382Z,1012.76
2017-04-02T12:06:38.606Z,1012.73
2017-04-02T12:07:39.851Z,1012.75
2017-04-02T12:08:41.145Z,1012.78
2017-04-02T12:09:42.388Z,1012.82
2017-04-02T12:10:43.648Z,1012.75
2017-04-02T12:11:44.977Z,1012.81
2017-04-02T12:12:46.116Z,1012.77
2017-04-02T12:13:47.399Z,1012.84
2017-04-02T12:14:48.647Z,1012.82
2017-04-02T12:15:49.914Z,1012.84
2017-04-02T12:16:51.164Z,1012.83
2017-04-02T12:17:52.411Z,1012.75
2017-04-02T12:18:53.652Z,1012.79
2017-04-02T12:19:54.930Z,1012.75
2017-04-02T12:20:56.172Z,1012.77
2017-04-02T12:21:57.455Z,1012.8
2017-04-02T12:22:58.680Z,1012.81